createdAt,value
2023-05-11T18:27:47.915Z,100561.03
2023-05-11T18:30:15.991Z,100556.94
2023-05-11T18:32:44.159Z,100561.22
2023-05-11T18:35:11.685Z,100554.19
2023-05-11T18:37:39.166Z,100558.59
2023-05-11T18:40:08.072Z,100564.16
2023-05-11T18:42:36.180Z,100558.75
2023-05-11T18:45:03.977Z,100560.38
2023-05-11T18:47:36.290Z,100567.22
2023-05-11T18:50:04.668Z,100556.47
2023-05-11T18:52:32.641Z,100564.94
2023-05-11T18:55:00.438Z,100561.69
2023-05-11T18:57:28.294Z,100563.00
2023-05-11T18:59:55.784Z,100557.47
2023-05-11T19:02:24.692Z,100567.09
2023-05-11T19:04:52.774Z,100563.16
2023-05-11T19:07:20.817Z,100556.78
2023-05-11T19:09:48.838Z,100564.59
2023-05-11T19:12:19.685Z,100557.59
2023-05-11T19:14:47.726Z,100561.34
2023-05-11T19:17:15.673Z,100557.13
2023-05-11T19:19:43.543Z,100556.28
2023-05-11T19:22:11.549Z,100560.38
2023-05-11T19:24:39.163Z,100568.38
2023-05-11T19:27:08.056Z,100561.72
2023-05-11T19:29:36.146Z,100562.69
2023-05-11T19:32:05.349Z,100560.38
2023-05-11T19:34:34.015Z,100563.16
2023-05-11T19:37:02.312Z,100568.06
2023-05-11T19:39:30.246Z,100568.53
2023-05-11T19:41:58.074Z,100562.03
2023-05-11T19:44:26.029Z,100576.22
2023-05-11T19:46:53.761Z,100566.75
2023-05-11T19:49:21.865Z,100564.81
2023-05-11T19:51:49.661Z,100563.34
2023-05-11T19:54:17.625Z,100576.22
2023-05-11T19:56:45.145Z,100578.47
2023-05-11T19:59:12.814Z,100571.66
2023-05-11T20:01:40.542Z,100580.28
2023-05-11T20:04:08.196Z,100577.66
2023-05-11T20:06:40.233Z,100572.13
2023-05-11T20:09:09.828Z,100576.34
2023-05-11T20:11:39.445Z,100570.97
2023-05-11T20:14:09.644Z,100566.72
2023-05-11T20:16:37.347Z,100560.69
2023-05-11T20:19:05.862Z,100566.06
2023-05-11T20:21:33.866Z,100572.59
2023-05-11T20:24:01.888Z,100566.88
2023-05-11T20:26:31.272Z,100554.94
2023-05-11T20:28:59.039Z,100556.25
2023-05-11T20:31:27.245Z,100555.78
2023-05-11T20:36:25.296Z,100544.38
2023-05-11T20:38:54.283Z,100536.22
2023-05-11T20:41:22.229Z,100531.97
2023-05-11T20:43:51.437Z,100522.84
2023-05-11T20:46:19.213Z,100524.66
2023-05-11T20:48:50.756Z,100539.69
2023-05-11T20:51:28.765Z,100533.50
2023-05-11T20:54:02.722Z,100532.84
2023-05-11T20:56:34.394Z,100530.88
2023-05-11T20:59:01.895Z,100539.53
2023-05-11T21:01:29.721Z,100540.34
2023-05-11T21:03:58.012Z,100537.06
2023-05-11T21:06:25.857Z,100533.81
2023-05-11T21:08:55.029Z,100541.94
2023-05-11T21:11:22.881Z,100548.13
2023-05-11T21:13:50.891Z,100546.91
2023-05-11T21:16:18.771Z,100545.25
2023-05-11T21:18:46.449Z,100543.94
2023-05-11T21:21:13.981Z,100549.97
2023-05-11T21:23:41.534Z,100545.88
2023-05-11T21:26:09.246Z,100547.03
2023-05-11T21:28:39.471Z,100548.31
2023-05-11T21:31:07.538Z,100545.69
2023-05-11T21:33:36.114Z,100547.63
2023-05-11T21:36:05.847Z,100548.13
2023-05-11T21:38:33.736Z,100550.19
2023-05-11T21:41:01.418Z,100551.63
2023-05-11T21:43:28.954Z,100557.31
2023-05-11T21:45:57.359Z,100557.13
2023-05-11T21:48:24.975Z,100563.44
2023-05-11T21:50:54.130Z,100551.06
2023-05-11T21:53:22.857Z,100556.72
2023-05-11T21:55:50.887Z,100552.34
2023-05-11T21:58:19.143Z,100552.63
2023-05-11T22:00:46.988Z,100552.13
2023-05-11T22:03:14.766Z,100551.78
2023-05-11T22:05:42.670Z,100549.47
2023-05-11T22:08:14.839Z,100555.16
2023-05-11T22:10:43.551Z,100551.22
2023-05-11T22:13:11.077Z,100553.78
2023-05-11T22:15:39.192Z,100559.47
2023-05-11T22:18:07.187Z,100554.00
2023-05-11T22:20:34.932Z,100558.59
2023-05-11T22:23:02.670Z,100548.38
2023-05-11T22:25:30.465Z,100558.00
2023-05-11T22:27:58.103Z,100557.56
2023-05-11T22:30:25.678Z,100558.72
2023-05-11T22:32:53.399Z,100552.25
2023-05-11T22:35:21.601Z,100554.53
2023-05-11T22:37:49.163Z,100563.66
2023-05-11T22:40:17.271Z,100562.22
2023-05-11T22:42:44.864Z,100555.88
2023-05-11T22:45:12.649Z,100551.19
2023-05-11T22:47:42.096Z,100552.66
2023-05-11T22:50:12.256Z,100550.41
2023-05-11T22:52:39.826Z,100550.22
2023-05-11T22:55:08.035Z,100544.19
2023-05-11T22:57:35.713Z,100559.38
2023-05-11T23:00:04.150Z,100554.00
2023-05-11T23:02:33.573Z,100552.38
2023-05-11T23:05:01.378Z,100549.13
2023-05-11T23:07:31.130Z,100552.34
2023-05-11T23:09:59.028Z,100552.97
2023-05-11T23:12:26.634Z,100558.31
2023-05-11T23:14:54.720Z,100553.25
2023-05-11T23:17:22.693Z,100549.94
2023-05-11T23:19:50.136Z,100557.22
2023-05-11T23:22:17.632Z,100548.88
2023-05-11T23:24:45.849Z,100548.31
2023-05-11T23:27:13.587Z,100549.91
2023-05-11T23:29:41.270Z,100550.31
2023-05-11T23:32:09.098Z,100538.84
2023-05-11T23:34:38.118Z,100548.75
2023-05-11T23:37:05.699Z,100556.38
2023-05-11T23:39:33.665Z,100550.78
2023-05-11T23:42:01.428Z,100543.25
2023-05-11T23:44:29.186Z,100549.72
2023-05-11T23:46:57.051Z,100538.66
2023-05-11T23:49:24.836Z,100547.44
2023-05-11T23:51:53.027Z,100545.66
2023-05-11T23:54:20.763Z,100541.25
2023-05-11T23:56:48.223Z,100544.31
2023-05-11T23:59:15.765Z,100558.94
